Time;durP1;ratioP1;P1;durP2;ratioP2;P2;SDS_P1;SDS_P2;PMS_P1;PMS_P2;Temp;Humidity;BMP_temperature;BMP_pressure;BME280_temperature;BME280_humidity;BME280_pressure;Samples;Min_cycle;Max_cycle;Signal;HPM_P1;HPM_P2
2023/06/16 00:01:53;;;;;;;7.75;5.53;;;;;;;;;;5004530;28;20022;-79
2023/06/16 00:04:21;;;;;;;8.80;6.50;;;;;;;;;;5003605;28;20022;-79
2023/06/16 00:06:47;;;;;;;8.38;5.88;;;;;;;;;;5004404;28;20033;-79
2023/06/16 00:09:13;;;;;;;7.35;6.05;;;;;;;;;;5005194;28;20108;-77
2023/06/16 00:11:39;;;;;;;8.93;6.15;;;;;;;;;;5003783;28;20053;-77
2023/06/16 00:14:05;;;;;;;8.88;6.45;;;;;;;;;;5005510;28;20026;-79
2023/06/16 00:16:32;;;;;;;8.93;6.65;;;;;;;;;;5004873;28;20037;-79
2023/06/16 00:19:00;;;;;;;9.10;6.05;;;;;;;;;;4988666;28;20066;-77
2023/06/16 00:21:29;;;;;;;7.57;6.35;;;;;;;;;;5003790;28;20394;-79
2023/06/16 00:23:59;;;;;;;8.07;6.22;;;;;;;;;;5004655;28;20026;-79
2023/06/16 00:26:26;;;;;;;8.30;5.65;;;;;;;;;;5001883;28;20084;-79
2023/06/16 00:28:52;;;;;;;9.35;6.32;;;;;;;;;;5001378;28;20057;-80
2023/06/16 00:31:18;;;;;;;7.03;5.28;;;;;;;;;;5003263;28;20030;-76
2023/06/16 00:33:44;;;;;;;7.00;5.75;;;;;;;;;;5001849;28;20030;-78
2023/06/16 00:36:09;;;;;;;10.18;5.88;;;;;;;;;;5002672;28;20026;-79
2023/06/16 00:38:35;;;;;;;9.68;6.55;;;;;;;;;;5003686;28;20026;-77
2023/06/16 00:41:04;;;;;;;6.75;5.75;;;;;;;;;;5002178;28;20061;-79
2023/06/16 00:43:30;;;;;;;7.45;6.07;;;;;;;;;;5002456;28;20046;-78
2023/06/16 00:45:56;;;;;;;12.40;6.90;;;;;;;;;;5003044;28;20422;-78
2023/06/16 00:48:22;;;;;;;6.38;5.60;;;;;;;;;;5003898;28;20023;-78
2023/06/16 00:50:50;;;;;;;7.60;6.07;;;;;;;;;;5001279;28;20030;-79
2023/06/16 00:53:18;;;;;;;9.65;6.10;;;;;;;;;;5001475;28;20037;-80
2023/06/16 00:55:46;;;;;;;7.10;5.97;;;;;;;;;;5002596;28;20046;-79
2023/06/16 00:58:12;;;;;;;8.32;6.43;;;;;;;;;;5001222;28;20033;-79
2023/06/16 01:00:38;;;;;;;8.98;7.05;;;;;;;;;;5001216;28;20026;-78
2023/06/16 01:03:08;;;;;;;7.28;5.75;;;;;;;;;;5002804;28;20026;-78
2023/06/16 01:05:37;;;;;;;9.68;5.40;;;;;;;;;;5001234;28;20034;-79
2023/06/16 01:08:51;;;;;;;12.82;7.65;;;;;;;;;;4985909;28;20096;-77
2023/06/16 01:11:33;;;;;;;10.35;6.25;;;;;;;;;;4981164;28;20027;-78
2023/06/16 01:14:07;;;;;;;6.93;6.22;;;;;;;;;;4964947;28;20071;-77
2023/06/16 01:16:35;;;;;;;9.77;6.15;;;;;;;;;;4990140;28;20030;-79
2023/06/16 01:19:17;;;;;;;13.15;6.63;;;;;;;;;;5000638;28;20053;-78
2023/06/16 01:22:06;;;;;;;7.72;5.85;;;;;;;;;;5002430;28;20027;-79
2023/06/16 01:24:36;;;;;;;10.48;5.95;;;;;;;;;;5002983;28;20019;-81
2023/06/16 01:27:08;;;;;;;10.68;5.65;;;;;;;;;;5002362;28;20533;-80
2023/06/16 01:29:37;;;;;;;7.75;5.75;;;;;;;;;;5001788;28;20093;-78
2023/06/16 01:32:08;;;;;;;10.75;6.75;;;;;;;;;;5001713;28;20042;-79
2023/06/16 01:34:35;;;;;;;9.88;5.90;;;;;;;;;;5001277;28;20034;-78
2023/06/16 01:37:04;;;;;;;8.50;5.88;;;;;;;;;;5001165;28;20080;-78
2023/06/16 01:39:33;;;;;;;10.00;6.00;;;;;;;;;;5001091;28;20042;-78
2023/06/16 01:42:00;;;;;;;8.70;6.78;;;;;;;;;;5005376;28;20026;-78
2023/06/16 01:44:28;;;;;;;11.10;6.72;;;;;;;;;;5006239;28;20093;-79
2023/06/16 01:46:55;;;;;;;12.68;6.00;;;;;;;;;;5006416;28;20034;-77
2023/06/16 01:49:22;;;;;;;11.98;6.03;;;;;;;;;;5005469;28;20026;-78
2023/06/16 01:51:51;;;;;;;12.13;6.90;;;;;;;;;;5004974;28;20026;-77
2023/06/16 01:54:19;;;;;;;7.80;6.10;;;;;;;;;;5004447;28;20033;-78
2023/06/16 01:56:48;;;;;;;10.40;6.20;;;;;;;;;;5004578;28;20030;-79
2023/06/16 01:59:14;;;;;;;8.82;5.72;;;;;;;;;;5004988;28;20026;-79
2023/06/16 02:02:10;;;;;;;6.70;5.63;;;;;;;;;;5005843;28;20037;-78
2023/06/16 02:04:42;;;;;;;8.27;5.78;;;;;;;;;;5006389;28;20018;-80
2023/06/16 02:07:14;;;;;;;9.45;6.53;;;;;;;;;;5005390;28;20030;-80
2023/06/16 02:09:41;;;;;;;8.10;5.50;;;;;;;;;;5006450;28;20112;-79
2023/06/16 02:12:11;;;;;;;8.90;6.25;;;;;;;;;;5007255;28;20086;-79
2023/06/16 02:14:37;;;;;;;8.10;6.05;;;;;;;;;;5006347;28;20014;-79
2023/06/16 02:17:09;;;;;;;8.57;6.20;;;;;;;;;;5004417;28;20041;-80
2023/06/16 02:19:38;;;;;;;6.95;5.25;;;;;;;;;;5022254;28;20041;-79
2023/06/16 02:22:08;;;;;;;9.00;6.80;;;;;;;;;;4993299;28;20556;-79
2023/06/16 02:24:40;;;;;;;8.70;6.70;;;;;;;;;;5026048;28;20061;-78
2023/06/16 02:27:08;;;;;;;8.00;6.15;;;;;;;;;;5009891;28;20030;-77
2023/06/16 02:29:38;;;;;;;9.55;5.78;;;;;;;;;;5026501;28;20485;-78
2023/06/16 02:32:11;;;;;;;10.57;6.97;;;;;;;;;;5009473;28;20037;-79
2023/06/16 02:34:38;;;;;;;8.85;6.45;;;;;;;;;;5008909;28;20022;-79
2023/06/16 02:37:04;;;;;;;9.07;5.80;;;;;;;;;;5008094;28;20029;-80
2023/06/16 02:39:33;;;;;;;10.10;6.15;;;;;;;;;;5008286;28;20050;-79
2023/06/16 02:42:02;;;;;;;8.50;5.88;;;;;;;;;;5009108;28;20036;-78
2023/06/16 02:44:28;;;;;;;8.55;6.63;;;;;;;;;;5026296;28;20022;-78
2023/06/16 02:46:54;;;;;;;7.10;5.68;;;;;;;;;;5008372;28;20073;-79
2023/06/16 02:49:23;;;;;;;8.70;5.90;;;;;;;;;;5025827;28;20025;-79
2023/06/16 02:51:50;;;;;;;7.82;6.15;;;;;;;;;;5008867;28;20112;-79
2023/06/16 02:54:16;;;;;;;28.70;8.40;;;;;;;;;;5007538;28;20041;-79
2023/06/16 02:56:41;;;;;;;14.05;6.65;;;;;;;;;;5007555;28;20034;-78
2023/06/16 02:59:10;;;;;;;7.72;6.15;;;;;;;;;;5008307;28;20056;-79
2023/06/16 03:01:36;;;;;;;9.50;6.20;;;;;;;;;;5026177;28;20032;-79
2023/06/16 03:04:03;;;;;;;8.70;6.57;;;;;;;;;;5007821;28;20029;-78
2023/06/16 03:06:29;;;;;;;8.32;6.30;;;;;;;;;;5007396;28;20033;-78
2023/06/16 03:08:58;;;;;;;7.72;5.93;;;;;;;;;;5009458;28;20026;-79
2023/06/16 03:11:24;;;;;;;11.02;7.25;;;;;;;;;;5010118;28;20037;-79
2023/06/16 03:13:53;;;;;;;7.72;5.90;;;;;;;;;;5010109;28;20030;-78
2023/06/16 03:16:21;;;;;;;10.75;6.35;;;;;;;;;;5027833;28;20025;-78
2023/06/16 03:18:47;;;;;;;9.40;7.18;;;;;;;;;;5026505;28;20077;-78
2023/06/16 03:21:16;;;;;;;8.73;6.95;;;;;;;;;;5027611;28;20026;-79
2023/06/16 03:23:44;;;;;;;9.35;6.38;;;;;;;;;;5009788;28;20060;-78
2023/06/16 03:26:22;;;;;;;12.90;6.35;;;;;;;;;;5009187;28;20025;-80
2023/06/16 03:28:48;;;;;;;11.80;6.95;;;;;;;;;;5010555;28;20029;-77
2023/06/16 03:31:14;;;;;;;9.18;6.80;;;;;;;;;;5009968;28;20120;-79
2023/06/16 03:33:39;;;;;;;10.95;7.30;;;;;;;;;;5008743;28;20406;-79
2023/06/16 03:36:06;;;;;;;10.60;6.97;;;;;;;;;;5009453;28;20026;-79
2023/06/16 03:38:32;;;;;;;8.52;6.97;;;;;;;;;;5008438;28;20030;-79
2023/06/16 03:41:22;;;;;;;9.63;6.43;;;;;;;;;;5025616;28;20041;-77
2023/06/16 03:43:48;;;;;;;10.70;6.60;;;;;;;;;;5026068;28;20030;-77
2023/06/16 03:46:14;;;;;;;11.57;7.03;;;;;;;;;;5026108;28;20030;-79
2023/06/16 03:48:44;;;;;;;10.70;6.88;;;;;;;;;;5009131;28;20037;-79
2023/06/16 03:51:19;;;;;;;8.43;6.55;;;;;;;;;;5008446;28;20033;-79
2023/06/16 03:53:46;;;;;;;8.65;6.65;;;;;;;;;;5007644;28;20037;-77
2023/06/16 03:56:12;;;;;;;10.65;6.78;;;;;;;;;;5007996;28;20017;-78
2023/06/16 03:58:39;;;;;;;12.25;6.78;;;;;;;;;;5007303;28;20129;-77
2023/06/16 04:01:06;;;;;;;13.20;6.80;;;;;;;;;;5008316;28;20037;-77
2023/06/16 04:03:32;;;;;;;11.38;6.25;;;;;;;;;;5008198;28;20040;-79
2023/06/16 04:05:58;;;;;;;11.50;6.47;;;;;;;;;;5007237;28;20026;-77
2023/06/16 04:08:23;;;;;;;10.98;7.13;;;;;;;;;;5008206;28;20076;-78
2023/06/16 04:10:52;;;;;;;10.15;6.75;;;;;;;;;;5008628;28;20026;-79
2023/06/16 04:13:22;;;;;;;12.23;6.38;;;;;;;;;;5026500;28;20088;-80
2023/06/16 04:15:50;;;;;;;13.73;6.47;;;;;;;;;;5008337;28;20021;-78
2023/06/16 04:18:17;;;;;;;11.15;7.32;;;;;;;;;;5008104;28;20455;-79
2023/06/16 04:20:43;;;;;;;13.20;7.03;;;;;;;;;;5008635;28;20030;-78
2023/06/16 04:23:09;;;;;;;7.88;5.95;;;;;;;;;;5008737;28;20030;-80
2023/06/16 04:25:42;;;;;;;11.82;6.47;;;;;;;;;;5026225;28;20029;-78
2023/06/16 04:28:13;;;;;;;10.80;6.95;;;;;;;;;;4992071;28;20086;-79
2023/06/16 04:30:42;;;;;;;12.23;7.13;;;;;;;;;;5025899;28;20096;-77
2023/06/16 04:33:22;;;;;;;7.93;6.18;;;;;;;;;;5026401;28;20428;-79
2023/06/16 04:35:53;;;;;;;9.07;6.53;;;;;;;;;;5026564;28;20512;-79
2023/06/16 04:38:27;;;;;;;12.55;6.35;;;;;;;;;;5007927;28;20454;-79
2023/06/16 04:40:54;;;;;;;10.30;6.28;;;;;;;;;;5008311;28;20029;-79
2023/06/16 04:43:23;;;;;;;9.73;6.55;;;;;;;;;;5007304;28;20385;-77
2023/06/16 04:45:52;;;;;;;9.77;6.38;;;;;;;;;;5006906;28;20124;-79
2023/06/16 04:48:21;;;;;;;13.93;7.80;;;;;;;;;;5007986;28;20026;-79
2023/06/16 04:50:50;;;;;;;11.63;7.32;;;;;;;;;;5008072;28;20022;-79
2023/06/16 04:53:16;;;;;;;10.95;6.10;;;;;;;;;;5025690;28;20042;-80
2023/06/16 04:55:42;;;;;;;9.27;6.07;;;;;;;;;;5008264;28;20037;-80
2023/06/16 04:58:11;;;;;;;8.57;6.05;;;;;;;;;;5008215;28;20033;-78
2023/06/16 05:00:37;;;;;;;8.23;6.22;;;;;;;;;;4991974;28;20034;-79
2023/06/16 05:03:03;;;;;;;9.98;5.72;;;;;;;;;;5025970;28;20097;-78
2023/06/16 05:05:29;;;;;;;13.10;6.00;;;;;;;;;;5007583;28;20026;-80
2023/06/16 05:07:56;;;;;;;7.75;6.40;;;;;;;;;;4996681;28;20030;-79
2023/06/16 05:10:33;;;;;;;8.48;5.55;;;;;;;;;;4999615;28;20038;-82
2023/06/16 05:13:00;;;;;;;12.80;6.15;;;;;;;;;;5027579;28;20030;-78
2023/06/16 05:15:26;;;;;;;7.65;5.55;;;;;;;;;;5010831;28;20030;-80
2023/06/16 05:17:52;;;;;;;8.43;5.85;;;;;;;;;;5007841;28;20040;-79
2023/06/16 05:20:18;;;;;;;7.05;5.53;;;;;;;;;;5006787;28;20068;-79
2023/06/16 05:22:45;;;;;;;6.90;5.35;;;;;;;;;;5042738;28;20053;-78
2023/06/16 05:25:15;;;;;;;13.32;6.63;;;;;;;;;;5029779;28;20120;-80
2023/06/16 05:27:41;;;;;;;10.93;6.43;;;;;;;;;;5033160;28;20033;-78
2023/06/16 05:30:13;;;;;;;16.15;7.18;;;;;;;;;;5030213;28;20112;-81
2023/06/16 05:32:45;;;;;;;9.43;5.78;;;;;;;;;;5003643;28;20069;-79
2023/06/16 05:35:14;;;;;;;10.57;5.45;;;;;;;;;;5011741;28;20030;-79
2023/06/16 05:37:40;;;;;;;11.05;7.68;;;;;;;;;;5011626;28;20033;-80
2023/06/16 05:40:10;;;;;;;14.63;6.20;;;;;;;;;;5005644;28;20116;-80
2023/06/16 05:42:42;;;;;;;13.27;7.57;;;;;;;;;;5030061;28;20038;-79
2023/06/16 05:45:11;;;;;;;10.48;6.30;;;;;;;;;;5000625;28;20062;-80
2023/06/16 05:47:49;;;;;;;6.82;5.47;;;;;;;;;;5021112;28;20120;-81
2023/06/16 05:50:24;;;;;;;12.98;7.20;;;;;;;;;;5008231;28;20082;-85
2023/06/16 05:53:18;;;;;;;11.18;6.95;;;;;;;;;;5034132;28;20025;-89
2023/06/16 05:56:08;;;;;;;11.77;6.35;;;;;;;;;;5012181;28;20295;-88
2023/06/16 05:58:44;;;;;;;8.18;6.18;;;;;;;;;;5042403;28;20052;-89
2023/06/16 06:01:13;;;;;;;10.75;6.40;;;;;;;;;;5001811;28;20053;-86
2023/06/16 06:04:22;;;;;;;8.90;5.90;;;;;;;;;;5026004;28;20017;-85
2023/06/16 06:07:01;;;;;;;13.32;6.05;;;;;;;;;;4940739;28;20047;-87
2023/06/16 06:09:38;;;;;;;;;;;;;;;;;;;;;
2023/06/16 06:12:07;;;;;;;7.43;6.03;;;;;;;;;;5021069;28;20062;-85
2023/06/16 06:14:48;;;;;;;10.10;5.75;;;;;;;;;;4996391;28;20018;-87
2023/06/16 06:17:48;;;;;;;10.60;6.38;;;;;;;;;;5014800;28;20030;-87
2023/06/16 06:20:21;;;;;;;9.68;6.38;;;;;;;;;;5038905;23;20110;-78
2023/06/16 06:22:48;;;;;;;10.77;6.43;;;;;;;;;;5018082;28;20076;-77
2023/06/16 06:25:17;;;;;;;10.40;6.65;;;;;;;;;;5032475;28;20041;-75
2023/06/16 06:27:51;;;;;;;8.63;5.72;;;;;;;;;;5031667;28;20070;-78
2023/06/16 06:30:27;;;;;;;12.18;7.40;;;;;;;;;;5039988;28;20457;-77
2023/06/16 06:32:53;;;;;;;8.20;6.22;;;;;;;;;;5019034;28;20041;-75
2023/06/16 06:35:26;;;;;;;9.15;5.65;;;;;;;;;;5028555;28;20627;-77
2023/06/16 06:37:53;;;;;;;7.82;5.63;;;;;;;;;;5007400;28;20365;-75
2023/06/16 06:40:19;;;;;;;8.93;6.22;;;;;;;;;;5017321;28;20038;-76
2023/06/16 06:42:46;;;;;;;9.93;6.38;;;;;;;;;;5009769;28;20480;-75
2023/06/16 06:45:14;;;;;;;8.13;5.95;;;;;;;;;;5032432;28;20095;-78
2023/06/16 06:47:44;;;;;;;10.23;6.57;;;;;;;;;;5027929;28;20052;-76
2023/06/16 06:50:16;;;;;;;12.25;6.85;;;;;;;;;;5024121;28;20113;-76
2023/06/16 06:52:43;;;;;;;27.95;21.70;;;;;;;;;;5016182;28;20515;-76
2023/06/16 06:55:13;;;;;;;10.73;7.25;;;;;;;;;;5024240;28;20359;-75
2023/06/16 06:57:42;;;;;;;12.00;6.20;;;;;;;;;;5002081;28;20034;-77
2023/06/16 07:00:15;;;;;;;11.13;6.35;;;;;;;;;;5018817;28;20036;-78
2023/06/16 07:02:42;;;;;;;10.68;6.32;;;;;;;;;;4989352;28;20222;-76
2023/06/16 07:05:13;;;;;;;13.70;6.70;;;;;;;;;;5023309;28;20092;-76
2023/06/16 07:07:41;;;;;;;10.02;6.25;;;;;;;;;;5005015;28;20470;-73
2023/06/16 07:10:10;;;;;;;21.08;7.65;;;;;;;;;;5003410;28;20025;-74
2023/06/16 07:12:37;;;;;;;9.93;6.50;;;;;;;;;;5008498;28;20029;-76
2023/06/16 07:15:24;;;;;;;12.60;6.60;;;;;;;;;;5025227;28;20061;-75
2023/06/16 07:17:52;;;;;;;14.60;6.63;;;;;;;;;;5020195;28;20462;-75
2023/06/16 07:20:25;;;;;;;9.43;6.35;;;;;;;;;;5020224;28;20133;-75
2023/06/16 07:23:11;;;;;;;10.82;6.55;;;;;;;;;;5011024;28;20037;-75
2023/06/16 07:25:38;;;;;;;14.07;6.40;;;;;;;;;;5005977;28;20029;-74
2023/06/16 07:28:06;;;;;;;9.95;6.32;;;;;;;;;;5003156;28;20038;-75
2023/06/16 07:30:44;;;;;;;11.75;6.55;;;;;;;;;;5018462;28;20048;-73
2023/06/16 07:33:16;;;;;;;12.48;6.82;;;;;;;;;;4988694;28;20029;-75
2023/06/16 07:36:13;;;;;;;15.25;6.50;;;;;;;;;;5021301;28;20414;-73
2023/06/16 07:38:51;;;;;;;14.43;7.05;;;;;;;;;;5010262;28;20572;-76
2023/06/16 07:41:17;;;;;;;14.15;6.85;;;;;;;;;;5001588;28;20029;-75
2023/06/16 07:43:51;;;;;;;11.52;5.72;;;;;;;;;;5009065;28;20033;-77
2023/06/16 07:46:21;;;;;;;14.98;6.20;;;;;;;;;;5007525;28;20055;-76
2023/06/16 07:48:48;;;;;;;10.13;6.13;;;;;;;;;;4981750;28;20044;-75
2023/06/16 07:51:23;;;;;;;13.00;6.40;;;;;;;;;;5019512;28;20044;-77
2023/06/16 07:53:49;;;;;;;13.63;6.13;;;;;;;;;;5020001;28;20048;-76
2023/06/16 07:56:16;;;;;;;14.13;7.05;;;;;;;;;;5010234;28;20033;-76
2023/06/16 07:58:50;;;;;;;11.98;6.25;;;;;;;;;;5000497;28;20041;-74
2023/06/16 08:01:24;;;;;;;8.82;6.85;;;;;;;;;;5005208;28;20041;-74
2023/06/16 08:03:51;;;;;;;11.55;6.78;;;;;;;;;;5011553;28;20053;-77
2023/06/16 08:06:23;;;;;;;11.15;7.20;;;;;;;;;;5026926;28;20068;-76
2023/06/16 08:08:58;;;;;;;35.97;20.40;;;;;;;;;;5026974;28;20030;-76
2023/06/16 08:11:46;;;;;;;11.77;6.33;;;;;;;;;;5007431;28;20026;-78
2023/06/16 08:14:24;;;;;;;9.63;6.40;;;;;;;;;;5005403;28;20283;-77
2023/06/16 08:17:00;;;;;;;8.27;5.30;;;;;;;;;;5006788;28;20386;-76
2023/06/16 08:19:27;;;;;;;10.55;6.43;;;;;;;;;;5010687;28;20085;-77
2023/06/16 08:21:54;;;;;;;10.90;5.93;;;;;;;;;;5003973;28;20044;-78
2023/06/16 08:24:30;;;;;;;11.23;6.03;;;;;;;;;;4965423;28;20079;-78
2023/06/16 08:27:00;;;;;;;9.95;6.00;;;;;;;;;;4988424;28;20034;-77
2023/06/16 08:29:30;;;;;;;15.80;11.75;;;;;;;;;;4988691;28;20099;-78
2023/06/16 08:32:00;;;;;;;13.77;7.82;;;;;;;;;;4991554;28;20088;-78
2023/06/16 08:34:27;;;;;;;12.65;6.28;;;;;;;;;;4988972;28;20149;-78
2023/06/16 08:36:55;;;;;;;16.15;5.68;;;;;;;;;;4988457;28;20069;-77
2023/06/16 08:39:22;;;;;;;10.05;5.68;;;;;;;;;;4986908;28;20220;-77
2023/06/16 08:41:50;;;;;;;10.20;5.13;;;;;;;;;;4971857;28;20582;-77
2023/06/16 08:44:18;;;;;;;10.60;5.93;;;;;;;;;;4989920;28;20351;-78
2023/06/16 08:46:46;;;;;;;14.13;6.07;;;;;;;;;;4999942;28;20094;-79
2023/06/16 08:49:17;;;;;;;7.53;5.15;;;;;;;;;;4987139;28;20109;-77
2023/06/16 08:51:56;;;;;;;11.05;5.97;;;;;;;;;;4986957;28;20125;-78
2023/06/16 08:54:25;;;;;;;12.05;5.53;;;;;;;;;;4985673;28;20515;-77
2023/06/16 08:56:53;;;;;;;16.15;7.00;;;;;;;;;;4987454;28;20050;-76
2023/06/16 08:59:22;;;;;;;10.43;5.32;;;;;;;;;;4988302;28;20030;-78
2023/06/16 09:01:53;;;;;;;12.68;5.25;;;;;;;;;;4983359;28;20050;-79
2023/06/16 09:04:24;;;;;;;12.32;5.35;;;;;;;;;;4985422;28;20122;-78
2023/06/16 09:06:56;;;;;;;11.35;5.32;;;;;;;;;;4961598;28;20050;-74
2023/06/16 09:09:29;;;;;;;8.68;5.05;;;;;;;;;;4986572;28;20026;-78
2023/06/16 09:12:07;;;;;;;7.07;5.13;;;;;;;;;;4985535;28;20041;-80
2023/06/16 09:14:41;;;;;;;12.27;5.55;;;;;;;;;;4980609;28;20066;-75
2023/06/16 09:17:09;;;;;;;8.85;5.30;;;;;;;;;;4977498;28;20513;-76
2023/06/16 09:19:52;;;;;;;12.70;5.75;;;;;;;;;;4985058;28;20157;-74
2023/06/16 09:22:26;;;;;;;12.60;5.82;;;;;;;;;;4994175;28;20038;-75
2023/06/16 09:24:59;;;;;;;12.40;6.18;;;;;;;;;;4958406;28;20507;-76
2023/06/16 09:27:52;;;;;;;7.25;4.95;;;;;;;;;;5021517;28;20045;-76
2023/06/16 09:30:22;;;;;;;6.85;4.35;;;;;;;;;;4987739;28;20044;-79
2023/06/16 09:32:53;;;;;;;8.90;5.10;;;;;;;;;;5002300;28;20095;-77
2023/06/16 09:35:28;;;;;;;6.72;4.60;;;;;;;;;;4994951;28;20018;-77
2023/06/16 09:38:03;;;;;;;8.95;4.97;;;;;;;;;;5004779;28;20068;-76
2023/06/16 09:40:38;;;;;;;7.53;4.72;;;;;;;;;;4987049;28;20038;-75
2023/06/16 09:43:09;;;;;;;9.90;4.70;;;;;;;;;;5000963;28;20038;-77
2023/06/16 09:45:38;;;;;;;7.85;4.75;;;;;;;;;;4993170;28;20069;-76
2023/06/16 09:48:36;;;;;;;7.80;4.97;;;;;;;;;;5000023;28;20038;-78
2023/06/16 09:51:08;;;;;;;9.23;5.30;;;;;;;;;;4997811;28;20497;-77
2023/06/16 09:53:37;;;;;;;7.65;4.95;;;;;;;;;;5002992;28;20302;-77
2023/06/16 09:56:07;;;;;;;7.10;4.80;;;;;;;;;;5003478;28;20084;-78
2023/06/16 09:58:34;;;;;;;7.30;4.70;;;;;;;;;;4988196;28;20653;-78
2023/06/16 10:01:01;;;;;;;5.93;4.80;;;;;;;;;;4996889;28;20115;-77
2023/06/16 10:03:32;;;;;;;8.40;5.18;;;;;;;;;;4993792;28;20026;-76
2023/06/16 10:06:03;;;;;;;6.78;5.07;;;;;;;;;;4999361;28;20533;-76
2023/06/16 10:08:29;;;;;;;13.25;5.72;;;;;;;;;;4999467;28;20038;-79
2023/06/16 10:11:00;;;;;;;9.90;5.47;;;;;;;;;;5001656;28;20049;-78
2023/06/16 10:13:33;;;;;;;13.32;5.53;;;;;;;;;;5004129;28;20110;-79
2023/06/16 10:16:13;;;;;;;9.80;5.43;;;;;;;;;;4992250;28;20069;-78
2023/06/16 10:18:45;;;;;;;9.30;4.85;;;;;;;;;;5007041;28;20036;-79
2023/06/16 10:21:22;;;;;;;8.45;4.53;;;;;;;;;;5001960;28;20053;-77
2023/06/16 10:23:52;;;;;;;6.85;4.53;;;;;;;;;;4979893;28;20053;-78
2023/06/16 10:26:19;;;;;;;9.50;5.10;;;;;;;;;;4990602;28;20034;-77
2023/06/16 10:28:49;;;;;;;12.77;5.10;;;;;;;;;;5008521;28;20398;-77
2023/06/16 10:31:27;;;;;;;7.50;4.45;;;;;;;;;;4988713;28;20038;-78
2023/06/16 10:34:04;;;;;;;5.00;4.43;;;;;;;;;;4987764;28;20038;-76
2023/06/16 10:36:36;;;;;;;5.88;4.25;;;;;;;;;;4996393;28;20136;-78
2023/06/16 10:39:13;;;;;;;8.00;4.00;;;;;;;;;;4991086;28;20061;-77
2023/06/16 10:42:07;;;;;;;6.07;4.15;;;;;;;;;;4998183;28;20041;-78
2023/06/16 10:44:38;;;;;;;10.55;5.93;;;;;;;;;;5017164;28;20042;-75
2023/06/16 10:47:11;;;;;;;9.40;4.18;;;;;;;;;;4990184;28;20026;-78
2023/06/16 10:49:51;;;;;;;5.38;3.88;;;;;;;;;;5002106;28;20034;-78
2023/06/16 10:52:39;;;;;;;8.50;4.32;;;;;;;;;;5007210;28;20486;-77
2023/06/16 10:55:38;;;;;;;10.02;4.10;;;;;;;;;;4997158;28;20034;-79
2023/06/16 10:58:18;;;;;;;6.78;4.13;;;;;;;;;;5019711;28;20030;-78
2023/06/16 11:00:59;;;;;;;6.03;3.22;;;;;;;;;;5002911;28;20549;-74
2023/06/16 11:03:45;;;;;;;8.85;3.47;;;;;;;;;;5004111;28;20037;-77
2023/06/16 11:06:17;;;;;;;4.00;3.25;;;;;;;;;;5003566;28;20022;-75
2023/06/16 11:09:00;;;;;;;4.05;3.28;;;;;;;;;;5005515;28;20033;-78
2023/06/16 11:11:58;;;;;;;11.75;4.03;;;;;;;;;;5004336;28;20034;-80
2023/06/16 11:14:29;;;;;;;4.63;3.22;;;;;;;;;;5003153;28;20041;-78
2023/06/16 11:16:56;;;;;;;5.60;3.05;;;;;;;;;;4996782;28;20474;-78
2023/06/16 11:19:39;;;;;;;6.20;4.63;;;;;;;;;;4989238;28;20147;-77
2023/06/16 11:22:11;;;;;;;7.05;3.70;;;;;;;;;;5000038;28;20037;-78
2023/06/16 11:24:47;;;;;;;10.02;3.47;;;;;;;;;;4986040;28;20053;-78
2023/06/16 11:27:14;;;;;;;5.10;3.75;;;;;;;;;;5007831;28;20125;-79
2023/06/16 11:29:40;;;;;;;8.07;3.80;;;;;;;;;;5012853;28;21015;-79
2023/06/16 11:32:32;;;;;;;7.60;3.95;;;;;;;;;;4997429;28;20351;-76
2023/06/16 11:35:00;;;;;;;6.95;3.53;;;;;;;;;;5003023;28;20042;-78
2023/06/16 11:37:49;;;;;;;7.75;4.45;;;;;;;;;;4992339;28;20042;-79
2023/06/16 11:40:44;;;;;;;8.98;4.22;;;;;;;;;;4999957;28;20985;-77
2023/06/16 11:43:18;;;;;;;8.52;4.05;;;;;;;;;;4990934;28;20918;-77
2023/06/16 11:45:47;;;;;;;7.85;3.50;;;;;;;;;;5003967;28;20041;-78
2023/06/16 11:48:46;;;;;;;8.02;5.53;;;;;;;;;;4977552;28;20030;-77
2023/06/16 11:51:23;;;;;;;6.40;4.05;;;;;;;;;;4997151;28;20050;-78
2023/06/16 11:53:53;;;;;;;5.22;3.50;;;;;;;;;;4995174;28;20452;-75
2023/06/16 11:56:33;;;;;;;7.90;4.03;;;;;;;;;;4995961;28;20027;-75
2023/06/16 11:59:03;;;;;;;7.63;3.60;;;;;;;;;;4995427;28;20129;-79
2023/06/16 12:01:32;;;;;;;7.78;4.40;;;;;;;;;;5001501;28;20026;-75
2023/06/16 12:04:02;;;;;;;13.30;4.10;;;;;;;;;;4994920;28;20046;-76
2023/06/16 12:06:56;;;;;;;6.43;3.30;;;;;;;;;;4997919;28;20498;-77
2023/06/16 12:09:39;;;;;;;5.90;3.90;;;;;;;;;;5010017;28;20410;-77
2023/06/16 12:12:08;;;;;;;8.73;4.65;;;;;;;;;;4996132;28;20044;-76
2023/06/16 12:14:38;;;;;;;7.03;4.20;;;;;;;;;;5020198;28;20036;-76
2023/06/16 12:17:05;;;;;;;9.05;3.90;;;;;;;;;;5007021;28;20033;-77
2023/06/16 12:19:31;;;;;;;5.78;3.78;;;;;;;;;;4996187;28;20055;-78
2023/06/16 12:22:04;;;;;;;12.45;5.70;;;;;;;;;;5009903;28;20034;-76
2023/06/16 12:24:31;;;;;;;7.30;3.92;;;;;;;;;;5005800;28;20034;-77
2023/06/16 12:27:01;;;;;;;4.80;3.72;;;;;;;;;;5011023;28;20038;-75
2023/06/16 12:29:28;;;;;;;9.27;4.07;;;;;;;;;;5012521;28;20033;-76
2023/06/16 12:31:58;;;;;;;8.40;5.65;;;;;;;;;;5009333;28;20026;-77
2023/06/16 12:34:35;;;;;;;7.75;4.07;;;;;;;;;;5006302;28;20034;-76
2023/06/16 12:37:13;;;;;;;7.88;4.20;;;;;;;;;;4988936;28;20058;-77
2023/06/16 12:39:56;;;;;;;10.27;4.63;;;;;;;;;;4991540;28;20042;-75
2023/06/16 12:42:37;;;;;;;6.30;3.65;;;;;;;;;;5006436;28;20022;-76
2023/06/16 12:45:06;;;;;;;;;;;;;;;;;;5000841;28;20034;-76
2023/06/16 12:47:36;;;;;;;9.27;5.43;;;;;;;;;;5003217;28;19917;-74
2023/06/16 12:50:05;;;;;;;;;;;;;;;;;;5007390;28;20037;-76
2023/06/16 12:52:38;;;;;;;10.70;5.10;;;;;;;;;;4983442;28;19979;-79
2023/06/16 12:55:04;;;;;;;12.15;5.70;;;;;;;;;;5009666;28;20081;-79
2023/06/16 12:57:38;;;;;;;6.25;5.30;;;;;;;;;;5006053;28;20138;-78
2023/06/16 13:00:09;;;;;;;17.98;5.63;;;;;;;;;;5002894;28;20033;-79
2023/06/16 13:02:40;;;;;;;12.27;5.72;;;;;;;;;;5013891;28;20105;-78
2023/06/16 13:05:12;;;;;;;10.43;6.43;;;;;;;;;;5012271;28;20026;-77
2023/06/16 13:07:38;;;;;;;7.75;6.38;;;;;;;;;;5007831;28;20038;-77
2023/06/16 13:10:04;;;;;;;6.15;3.72;;;;;;;;;;5009595;28;20040;-78
2023/06/16 13:12:31;;;;;;;8.23;3.42;;;;;;;;;;4999680;28;20034;-78
2023/06/16 13:14:58;;;;;;;5.10;3.33;;;;;;;;;;5012337;28;20052;-77
2023/06/16 13:17:24;;;;;;;5.60;3.92;;;;;;;;;;5011480;28;20042;-79
2023/06/16 13:19:51;;;;;;;5.63;3.60;;;;;;;;;;5015763;28;20093;-78
2023/06/16 13:22:18;;;;;;;7.53;4.35;;;;;;;;;;5010700;28;20085;-78
2023/06/16 13:24:45;;;;;;;11.35;5.18;;;;;;;;;;5007253;28;20037;-80
2023/06/16 13:27:18;;;;;;;7.93;4.32;;;;;;;;;;5005048;28;20033;-79
2023/06/16 13:29:48;;;;;;;8.43;4.20;;;;;;;;;;4990229;28;20100;-77
2023/06/16 13:32:15;;;;;;;8.57;4.05;;;;;;;;;;4996137;28;20069;-80
2023/06/16 13:34:45;;;;;;;22.65;7.07;;;;;;;;;;5007569;28;20038;-78
2023/06/16 13:37:22;;;;;;;13.60;9.18;;;;;;;;;;5013139;28;20041;-78
2023/06/16 13:39:48;;;;;;;13.30;9.52;;;;;;;;;;5008778;28;20034;-78
2023/06/16 13:42:17;;;;;;;20.25;9.63;;;;;;;;;;5014728;28;20562;-78
2023/06/16 13:44:46;;;;;;;13.95;8.95;;;;;;;;;;5012207;28;20034;-77
2023/06/16 13:47:13;;;;;;;19.00;10.93;;;;;;;;;;5011844;28;20049;-81
2023/06/16 13:49:40;;;;;;;22.15;12.63;;;;;;;;;;4990050;28;20386;-77
2023/06/16 13:52:06;;;;;;;20.60;11.23;;;;;;;;;;5027458;28;20124;-78
2023/06/16 13:54:34;;;;;;;16.48;9.60;;;;;;;;;;5026791;28;20034;-80
2023/06/16 13:57:01;;;;;;;17.95;8.88;;;;;;;;;;5011774;28;20112;-77
2023/06/16 13:59:27;;;;;;;9.35;6.13;;;;;;;;;;5013223;28;20053;-78
2023/06/16 14:01:55;;;;;;;9.35;5.05;;;;;;;;;;5002175;28;20060;-77
2023/06/16 14:04:22;;;;;;;12.52;6.00;;;;;;;;;;5008887;28;20041;-75
2023/06/16 14:06:48;;;;;;;49.13;7.85;;;;;;;;;;5005709;28;20045;-77
2023/06/16 14:09:14;;;;;;;10.40;6.13;;;;;;;;;;5003476;28;20030;-79
2023/06/16 14:11:43;;;;;;;12.95;6.57;;;;;;;;;;5005633;28;20121;-77
2023/06/16 14:14:09;;;;;;;10.38;6.75;;;;;;;;;;5013877;28;20025;-77
2023/06/16 14:16:36;;;;;;;14.23;5.22;;;;;;;;;;5017579;28;20433;-76
2023/06/16 14:19:03;;;;;;;5.80;4.95;;;;;;;;;;5012984;28;20370;-76
2023/06/16 14:21:31;;;;;;;11.52;5.82;;;;;;;;;;5008058;28;20066;-78
2023/06/16 14:24:00;;;;;;;8.30;4.80;;;;;;;;;;5009731;28;20026;-78
2023/06/16 14:26:29;;;;;;;22.00;8.82;;;;;;;;;;5005099;28;20036;-78
2023/06/16 14:29:01;;;;;;;23.17;8.55;;;;;;;;;;5014970;28;20030;-77
2023/06/16 14:31:31;;;;;;;60.15;9.02;;;;;;;;;;5014153;28;20099;-80
2023/06/16 14:33:58;;;;;;;7.57;4.47;;;;;;;;;;4998712;28;20048;-76
2023/06/16 14:36:24;;;;;;;5.57;4.05;;;;;;;;;;5018824;28;20034;-81
2023/06/16 14:38:50;;;;;;;25.05;7.45;;;;;;;;;;5017464;28;20061;-79
2023/06/16 14:41:20;;;;;;;11.65;5.00;;;;;;;;;;5016997;28;20026;-78
2023/06/16 14:43:45;;;;;;;9.02;4.82;;;;;;;;;;5015579;28;20047;-78
2023/06/16 14:46:12;;;;;;;16.40;4.95;;;;;;;;;;5017556;28;20025;-77
2023/06/16 14:48:38;;;;;;;7.22;4.70;;;;;;;;;;5015181;28;20034;-78
2023/06/16 14:51:04;;;;;;;10.23;4.32;;;;;;;;;;5017068;28;20032;-77
2023/06/16 14:53:31;;;;;;;5.22;4.00;;;;;;;;;;5015892;28;20669;-77
2023/06/16 14:55:57;;;;;;;15.18;5.38;;;;;;;;;;5015301;28;20022;-77
2023/06/16 14:58:26;;;;;;;12.25;5.13;;;;;;;;;;5015844;28;20218;-77
2023/06/16 15:00:54;;;;;;;14.68;5.13;;;;;;;;;;5017788;28;20034;-77
2023/06/16 15:03:20;;;;;;;10.15;5.20;;;;;;;;;;5017699;28;20042;-77